메인 페이지
METAR-TAF:

METAR-TAF

공항 :

서 시우사구르 람굴람 국제공항

모리셔스, 모리셔스

위도: 20-26S, 경도: 057-40E, 고도: 55m

현재 날씨관측

예보는 50분 전, 02:00시(UTC)에 발표되었습니다.
남남동13kt
온도 24°C
습도 100%
기압 1013 hPa
시정: 1000m
고도 800ft 상공 구름 조금
구름 조금 , 적란운.
고도 1400ft 상공 구름 많음

METAR: FIMP 160200Z 15013KT 1000NW RA FEW008 FEW///CB BKN014 24/24 Q1013 RERA

시각: 06:50 (02:50 UTC)

예보

예보는 3 시간 35분 전, 23:15시(UTC)에 발표되었습니다.
예보 대상 시간: 16일 00시부터 17일 06시까지 (UTC)
북북서5kt
시정 10km 이상
고도 1600ft 상공 구름 보통
일시적
16일 00시부터 16일 12시까지 (UTC)
시정: 7000m
고도 1000ft 상공 구름 조금
고도 1600ft 상공 구름 많음
약한소나기
전환 중
16일 04시부터 16일 06시까지 (UTC)
북동8kt
확률 30% :
일시적
16일 08시부터 16일 12시까지 (UTC)
시정: 4000m
고도 800ft 상공 구름 조금
고도 1200ft 상공 구름 조금, 적란운.
고도 1500ft 상공 구름 많음
전환 중
16일 18시부터 16일 20시까지 (UTC)
여러 방향의 바람 3kt

TAF: FIMP 152315Z 1600/1706 33005KT 9999 SCT016 TEMPO 1600/1612 7000 -SHRA FEW010 BKN016 BECMG 1604/1606 05008KT PROB30 TEMPO 1608/1612 4000 SHRA/TSRA FEW008 FEW012CB BKN015 BECMG 1618/1620 VRB03KT

4,000개 이상의 공항 관측 자료 및 예보 (METAR 및 TAF 보고).

지도상에서 검색 가능한 기상관측소가 노란 점과 빨간 점으로 표시되어 있습니다.

기상관측소 명을 보려면 표시 위로 마우스를 이동하세요.

날씨 관측과 예보를 보려면 클릭하세요.

지도 변경 : 확대하려면 엑스 표시가 있는 녹색 버튼, 축소하려면 빼기 표시가 있는 녹색 버튼, 다음 페이지의 지도를 보려면 녹색 화살표를 클릭하세요.


METAR-TAF: